sensor_id;sensor_type;location;lat;lon;timestamp;pressure;altitude;pressure_sealevel;temperature;humidity
33151;BME280;19508;42.578;23.416;2023-09-19T00:01:06;94097.13;;;16.58;73.86
33151;BME280;19508;42.578;23.416;2023-09-19T00:03:34;94095.25;;;16.54;73.88
33151;BME280;19508;42.578;23.416;2023-09-19T00:06:02;94095.75;;;16.61;73.76
33151;BME280;19508;42.578;23.416;2023-09-19T00:08:28;94093.13;;;16.51;73.57
33151;BME280;19508;42.578;23.416;2023-09-19T00:10:54;94086.00;;;16.55;73.90
33151;BME280;19508;42.578;23.416;2023-09-19T00:13:20;94093.88;;;16.56;73.93
33151;BME280;19508;42.578;23.416;2023-09-19T00:15:47;94095.88;;;16.41;74.80
33151;BME280;19508;42.578;23.416;2023-09-19T00:18:16;94085.88;;;16.36;74.79
33151;BME280;19508;42.578;23.416;2023-09-19T00:20:42;94084.28;;;16.30;75.23
33151;BME280;19508;42.578;23.416;2023-09-19T00:23:08;94092.41;;;16.35;75.29
33151;BME280;19508;42.578;23.416;2023-09-19T00:25:36;94084.25;;;16.35;75.31
33151;BME280;19508;42.578;23.416;2023-09-19T00:28:03;94084.78;;;16.37;75.47
33151;BME280;19508;42.578;23.416;2023-09-19T00:30:29;94083.94;;;16.42;75.19
33151;BME280;19508;42.578;23.416;2023-09-19T00:32:55;94072.53;;;16.40;75.52
33151;BME280;19508;42.578;23.416;2023-09-19T00:35:21;94079.03;;;16.44;74.92
33151;BME280;19508;42.578;23.416;2023-09-19T00:37:49;94082.59;;;16.39;74.88
33151;BME280;19508;42.578;23.416;2023-09-19T00:40:14;94069.56;;;16.36;75.48
33151;BME280;19508;42.578;23.416;2023-09-19T00:42:43;94071.72;;;16.39;75.15
33151;BME280;19508;42.578;23.416;2023-09-19T00:45:10;94075.03;;;16.31;75.28
33151;BME280;19508;42.578;23.416;2023-09-19T00:47:41;94081.03;;;16.33;75.49
33151;BME280;19508;42.578;23.416;2023-09-19T00:50:08;94079.34;;;16.37;75.34
33151;BME280;19508;42.578;23.416;2023-09-19T00:52:37;94079.34;;;16.37;75.73
33151;BME280;19508;42.578;23.416;2023-09-19T00:55:05;94076.72;;;16.22;76.24
33151;BME280;19508;42.578;23.416;2023-09-19T00:57:32;94072.91;;;16.23;76.30
33151;BME280;19508;42.578;23.416;2023-09-19T00:59:58;94059.31;;;16.23;76.48
33151;BME280;19508;42.578;23.416;2023-09-19T01:02:25;94065.09;;;16.16;76.68
33151;BME280;19508;42.578;23.416;2023-09-19T01:04:55;94064.81;;;16.18;76.66
33151;BME280;19508;42.578;23.416;2023-09-19T01:07:20;94066.47;;;16.14;76.85
33151;BME280;19508;42.578;23.416;2023-09-19T01:09:48;94050.50;;;16.07;77.25
33151;BME280;19508;42.578;23.416;2023-09-19T01:12:16;94063.19;;;16.17;77.33
33151;BME280;19508;42.578;23.416;2023-09-19T01:15:14;94062.03;;;16.23;77.21
33151;BME280;19508;42.578;23.416;2023-09-19T01:20:37;94064.84;;;16.13;77.81
33151;BME280;19508;42.578;23.416;2023-09-19T01:23:12;94072.25;;;16.02;78.49
33151;BME280;19508;42.578;23.416;2023-09-19T01:29:06;94073.50;;;16.20;77.59
33151;BME280;19508;42.578;23.416;2023-09-19T01:31:40;94070.78;;;16.15;77.59
33151;BME280;19508;42.578;23.416;2023-09-19T01:34:07;94072.25;;;16.02;78.36
33151;BME280;19508;42.578;23.416;2023-09-19T01:36:37;94065.94;;;16.12;78.01
33151;BME280;19508;42.578;23.416;2023-09-19T01:39:11;94067.56;;;16.13;78.20
33151;BME280;19508;42.578;23.416;2023-09-19T01:42:15;94065.31;;;16.25;77.85
33151;BME280;19508;42.578;23.416;2023-09-19T01:47:44;94059.91;;;16.20;77.61
33151;BME280;19508;42.578;23.416;2023-09-19T01:53:05;94051.84;;;16.04;77.92
33151;BME280;19508;42.578;23.416;2023-09-19T01:55:37;94049.19;;;15.94;78.47
33151;BME280;19508;42.578;23.416;2023-09-19T01:58:48;94044.84;;;15.98;78.52
33151;BME280;19508;42.578;23.416;2023-09-19T02:01:20;94050.81;;;15.95;78.93
33151;BME280;19508;42.578;23.416;2023-09-19T02:03:50;94047.06;;;15.91;78.81
33151;BME280;19508;42.578;23.416;2023-09-19T02:06:17;94053.53;;;16.00;78.83
33151;BME280;19508;42.578;23.416;2023-09-19T02:08:43;94047.28;;;16.00;79.08
33151;BME280;19508;42.578;23.416;2023-09-19T02:11:13;94063.00;;;16.03;78.91
33151;BME280;19508;42.578;23.416;2023-09-19T02:13:38;94056.53;;;15.99;78.82
33151;BME280;19508;42.578;23.416;2023-09-19T02:16:04;94053.59;;;15.90;78.96
33151;BME280;19508;42.578;23.416;2023-09-19T02:18:31;94059.25;;;15.94;79.21
33151;BME280;19508;42.578;23.416;2023-09-19T02:21:03;94069.25;;;16.03;79.05
33151;BME280;19508;42.578;23.416;2023-09-19T02:23:29;94069.75;;;16.05;78.93
33151;BME280;19508;42.578;23.416;2023-09-19T02:25:56;94070.41;;;15.92;79.39
33151;BME280;19508;42.578;23.416;2023-09-19T02:28:26;94063.56;;;16.00;78.67
33151;BME280;19508;42.578;23.416;2023-09-19T02:30:55;94067.63;;;15.97;78.29
33151;BME280;19508;42.578;23.416;2023-09-19T02:33:21;94059.19;;;16.04;78.29
33151;BME280;19508;42.578;23.416;2023-09-19T02:35:46;94062.78;;;15.94;78.24
33151;BME280;19508;42.578;23.416;2023-09-19T02:38:12;94057.00;;;16.06;77.82
33151;BME280;19508;42.578;23.416;2023-09-19T02:40:38;94052.66;;;16.05;77.77
33151;BME280;19508;42.578;23.416;2023-09-19T02:43:03;94050.28;;;15.98;78.06
33151;BME280;19508;42.578;23.416;2023-09-19T02:45:30;94049.41;;;16.03;78.17
33151;BME280;19508;42.578;23.416;2023-09-19T02:47:56;94043.25;;;15.92;78.58
33151;BME280;19508;42.578;23.416;2023-09-19T02:50:22;94025.88;;;15.88;78.63
33151;BME280;19508;42.578;23.416;2023-09-19T02:52:48;94033.50;;;15.86;78.84
33151;BME280;19508;42.578;23.416;2023-09-19T02:55:14;94026.97;;;15.87;78.86
33151;BME280;19508;42.578;23.416;2023-09-19T02:57:53;94015.06;;;15.83;79.75
33151;BME280;19508;42.578;23.416;2023-09-19T03:00:33;94020.44;;;15.88;79.54
33151;BME280;19508;42.578;23.416;2023-09-19T03:03:01;94018.16;;;16.05;79.05
33151;BME280;19508;42.578;23.416;2023-09-19T03:05:27;94010.94;;;15.91;79.57
33151;BME280;19508;42.578;23.416;2023-09-19T03:07:56;94009.59;;;15.88;79.72
33151;BME280;19508;42.578;23.416;2023-09-19T03:10:22;94006.88;;;15.88;79.96
33151;BME280;19508;42.578;23.416;2023-09-19T03:12:48;94011.53;;;15.83;80.25
33151;BME280;19508;42.578;23.416;2023-09-19T03:15:15;94003.13;;;15.84;79.79
33151;BME280;19508;42.578;23.416;2023-09-19T03:17:47;93998.78;;;15.83;80.26
33151;BME280;19508;42.578;23.416;2023-09-19T03:20:13;93997.63;;;15.89;79.83
33151;BME280;19508;42.578;23.416;2023-09-19T03:22:39;94013.16;;;15.84;80.22
33151;BME280;19508;42.578;23.416;2023-09-19T03:25:07;94002.63;;;15.72;80.37
33151;BME280;19508;42.578;23.416;2023-09-19T03:27:36;94009.13;;;15.76;80.02
33151;BME280;19508;42.578;23.416;2023-09-19T03:30:03;94006.19;;;15.67;80.09
33151;BME280;19508;42.578;23.416;2023-09-19T03:32:35;94008.31;;;15.75;80.04
33151;BME280;19508;42.578;23.416;2023-09-19T03:35:01;94026.84;;;15.63;81.68
33151;BME280;19508;42.578;23.416;2023-09-19T03:37:27;94017.34;;;15.66;80.41
33151;BME280;19508;42.578;23.416;2023-09-19T03:39:52;94019.00;;;15.57;80.27
33151;BME280;19508;42.578;23.416;2023-09-19T03:42:18;94008.16;;;15.51;80.64
33151;BME280;19508;42.578;23.416;2023-09-19T03:44:50;94012.19;;;15.54;80.08
33151;BME280;19508;42.578;23.416;2023-09-19T03:47:17;94008.38;;;15.55;80.35
33151;BME280;19508;42.578;23.416;2023-09-19T03:49:43;94010.41;;;15.39;80.79
33151;BME280;19508;42.578;23.416;2023-09-19T03:52:08;94004.91;;;15.49;80.08
33151;BME280;19508;42.578;23.416;2023-09-19T03:54:33;94000.63;;;15.38;80.48
33151;BME280;19508;42.578;23.416;2023-09-19T03:56:59;94012.31;;;15.34;80.68
33151;BME280;19508;42.578;23.416;2023-09-19T03:59:24;94017.50;;;15.30;81.04
33151;BME280;19508;42.578;23.416;2023-09-19T04:01:49;94015.25;;;15.37;81.13
33151;BME280;19508;42.578;23.416;2023-09-19T04:04:15;94009.81;;;15.47;80.75
33151;BME280;19508;42.578;23.416;2023-09-19T04:06:44;94019.00;;;15.51;80.44
33151;BME280;19508;42.578;23.416;2023-09-19T04:09:09;94033.09;;;15.59;80.28
33151;BME280;19508;42.578;23.416;2023-09-19T04:11:34;94023.91;;;15.49;80.38
33151;BME280;19508;42.578;23.416;2023-09-19T04:14:03;94028.47;;;15.59;80.39
33151;BME280;19508;42.578;23.416;2023-09-19T04:16:29;94027.16;;;15.46;81.24
33151;BME280;19508;42.578;23.416;2023-09-19T04:18:54;94030.09;;;15.55;81.08
33151;BME280;19508;42.578;23.416;2023-09-19T04:21:20;94036.66;;;15.49;80.90
33151;BME280;19508;42.578;23.416;2023-09-19T04:23:45;94040.72;;;15.57;81.13
33151;BME280;19508;42.578;23.416;2023-09-19T04:26:11;94048.53;;;15.68;80.75
33151;BME280;19508;42.578;23.416;2023-09-19T04:28:37;94046.69;;;15.64;80.75
33151;BME280;19508;42.578;23.416;2023-09-19T04:31:03;94045.25;;;15.71;80.88
33151;BME280;19508;42.578;23.416;2023-09-19T04:33:29;94042.88;;;15.65;81.29
33151;BME280;19508;42.578;23.416;2023-09-19T04:35:55;94051.50;;;15.72;80.94
33151;BME280;19508;42.578;23.416;2023-09-19T04:38:21;94049.38;;;15.64;80.60
33151;BME280;19508;42.578;23.416;2023-09-19T04:40:47;94057.50;;;15.69;80.65
33151;BME280;19508;42.578;23.416;2023-09-19T04:43:12;94040.09;;;15.75;80.40
33151;BME280;19508;42.578;23.416;2023-09-19T04:45:38;94045.22;;;15.82;81.04
33151;BME280;19508;42.578;23.416;2023-09-19T04:48:04;94036.84;;;15.73;80.92
33151;BME280;19508;42.578;23.416;2023-09-19T04:50:32;94033.66;;;15.61;81.80
33151;BME280;19508;42.578;23.416;2023-09-19T04:52:57;94025.50;;;15.66;81.55
33151;BME280;19508;42.578;23.416;2023-09-19T04:55:24;94038.53;;;15.64;81.52
33151;BME280;19508;42.578;23.416;2023-09-19T04:57:50;94030.66;;;15.62;81.62
33151;BME280;19508;42.578;23.416;2023-09-19T05:00:17;94042.81;;;15.70;81.52
33151;BME280;19508;42.578;23.416;2023-09-19T05:02:49;94041.41;;;15.83;80.80
33151;BME280;19508;42.578;23.416;2023-09-19T05:05:14;94034.00;;;15.98;80.23
33151;BME280;19508;42.578;23.416;2023-09-19T05:07:42;94032.72;;;16.25;79.15
33151;BME280;19508;42.578;23.416;2023-09-19T05:10:08;94022.84;;;16.34;78.47
33151;BME280;19508;42.578;23.416;2023-09-19T05:12:35;94024.91;;;16.47;77.02
33151;BME280;19508;42.578;23.416;2023-09-19T05:15:04;94018.25;;;16.63;76.36
33151;BME280;19508;42.578;23.416;2023-09-19T05:17:30;94018.00;;;16.60;76.09
33151;BME280;19508;42.578;23.416;2023-09-19T05:19:57;94019.31;;;16.68;76.01
33151;BME280;19508;42.578;23.416;2023-09-19T05:22:23;94012.09;;;16.82;75.64
33151;BME280;19508;42.578;23.416;2023-09-19T05:24:51;94016.63;;;16.91;74.75
33151;BME280;19508;42.578;23.416;2023-09-19T05:27:18;94010.69;;;17.13;74.34
33151;BME280;19508;42.578;23.416;2023-09-19T05:29:43;94010.91;;;17.17;73.14
33151;BME280;19508;42.578;23.416;2023-09-19T05:32:10;94008.81;;;17.33;73.01
33151;BME280;19508;42.578;23.416;2023-09-19T05:34:36;94013.91;;;17.63;71.95
33151;BME280;19508;42.578;23.416;2023-09-19T05:37:01;94008.78;;;17.81;72.53
33151;BME280;19508;42.578;23.416;2023-09-19T05:39:27;94005.19;;;18.04;70.47
33151;BME280;19508;42.578;23.416;2023-09-19T05:41:52;94013.13;;;18.00;69.22
33151;BME280;19508;42.578;23.416;2023-09-19T05:44:18;94011.72;;;18.03;69.72
33151;BME280;19508;42.578;23.416;2023-09-19T05:46:43;94004.44;;;18.17;68.72
33151;BME280;19508;42.578;23.416;2023-09-19T05:49:10;94009.47;;;18.43;67.58
33151;BME280;19508;42.578;23.416;2023-09-19T05:51:35;94010.84;;;18.59;66.98
33151;BME280;19508;42.578;23.416;2023-09-19T05:54:01;93997.41;;;18.81;66.88
33151;BME280;19508;42.578;23.416;2023-09-19T05:56:26;93995.13;;;18.88;66.84
33151;BME280;19508;42.578;23.416;2023-09-19T05:58:52;93990.47;;;19.03;65.46
33151;BME280;19508;42.578;23.416;2023-09-19T06:01:18;93990.66;;;19.20;64.96
33151;BME280;19508;42.578;23.416;2023-09-19T06:03:44;93992.72;;;19.14;64.37
33151;BME280;19508;42.578;23.416;2023-09-19T06:06:12;93991.06;;;19.00;64.57
33151;BME280;19508;42.578;23.416;2023-09-19T06:08:38;93990.25;;;18.85;66.09
33151;BME280;19508;42.578;23.416;2023-09-19T06:11:03;93980.50;;;18.79;66.02
33151;BME280;19508;42.578;23.416;2023-09-19T06:13:34;93987.00;;;18.83;66.45
33151;BME280;19508;42.578;23.416;2023-09-19T06:16:13;93981.47;;;18.88;65.55
33151;BME280;19508;42.578;23.416;2023-09-19T06:18:38;93986.09;;;18.88;65.64
33151;BME280;19508;42.578;23.416;2023-09-19T06:21:04;93977.00;;;18.93;65.57
33151;BME280;19508;42.578;23.416;2023-09-19T06:23:33;93984.59;;;18.96;65.09
33151;BME280;19508;42.578;23.416;2023-09-19T06:25:59;93981.06;;;19.09;65.12
33151;BME280;19508;42.578;23.416;2023-09-19T06:28:25;93975.09;;;19.21;64.88
33151;BME280;19508;42.578;23.416;2023-09-19T06:30:53;93985.81;;;19.72;64.85
33151;BME280;19508;42.578;23.416;2023-09-19T06:33:19;93978.69;;;20.21;62.20
33151;BME280;19508;42.578;23.416;2023-09-19T06:35:46;93985.16;;;20.61;61.48
33151;BME280;19508;42.578;23.416;2023-09-19T06:38:13;93976.72;;;21.51;59.36
33151;BME280;19508;42.578;23.416;2023-09-19T06:40:41;93972.16;;;21.94;57.03
33151;BME280;19508;42.578;23.416;2023-09-19T06:43:12;93973.50;;;22.49;55.89
33151;BME280;19508;42.578;23.416;2023-09-19T06:45:37;93963.47;;;22.53;55.00
33151;BME280;19508;42.578;23.416;2023-09-19T06:48:03;93958.09;;;23.00;52.71
33151;BME280;19508;42.578;23.416;2023-09-19T06:50:28;93958.81;;;23.56;51.90
33151;BME280;19508;42.578;23.416;2023-09-19T06:52:58;93953.47;;;23.68;51.20
33151;BME280;19508;42.578;23.416;2023-09-19T06:55:26;93953.59;;;23.72;50.76
33151;BME280;19508;42.578;23.416;2023-09-19T06:57:56;93970.88;;;24.02;49.79
33151;BME280;19508;42.578;23.416;2023-09-19T07:00:22;93973.09;;;23.41;50.73
33151;BME280;19508;42.578;23.416;2023-09-19T07:02:58;93977.66;;;23.36;51.68
33151;BME280;19508;42.578;23.416;2023-09-19T07:05:28;93974.41;;;22.96;52.39
33151;BME280;19508;42.578;23.416;2023-09-19T07:07:54;93976.53;;;22.91;52.76
33151;BME280;19508;42.578;23.416;2023-09-19T07:10:23;93972.47;;;22.79;54.52
33151;BME280;19508;42.578;23.416;2023-09-19T07:13:05;93978.16;;;22.74;54.94
33151;BME280;19508;42.578;23.416;2023-09-19T07:15:34;93981.72;;;22.66;53.76
33151;BME280;19508;42.578;23.416;2023-09-19T07:18:05;93983.78;;;22.69;54.14
33151;BME280;19508;42.578;23.416;2023-09-19T07:20:32;93989.63;;;22.42;56.31
33151;BME280;19508;42.578;23.416;2023-09-19T07:22:59;93989.78;;;22.54;56.08
33151;BME280;19508;42.578;23.416;2023-09-19T07:25:26;93990.25;;;22.39;54.11
33151;BME280;19508;42.578;23.416;2023-09-19T07:27:51;93989.78;;;22.11;56.78
33151;BME280;19508;42.578;23.416;2023-09-19T07:30:17;93987.03;;;22.11;55.84
33151;BME280;19508;42.578;23.416;2023-09-19T07:32:42;93982.69;;;22.18;56.65
33151;BME280;19508;42.578;23.416;2023-09-19T07:35:08;93984.94;;;22.34;57.17
33151;BME280;19508;42.578;23.416;2023-09-19T07:37:34;93988.66;;;22.46;56.11
33151;BME280;19508;42.578;23.416;2023-09-19T07:40:00;93987.22;;;22.14;56.75
33151;BME280;19508;42.578;23.416;2023-09-19T07:42:26;93986.19;;;21.93;56.83
33151;BME280;19508;42.578;23.416;2023-09-19T07:44:52;93990.09;;;22.27;56.06
33151;BME280;19508;42.578;23.416;2023-09-19T07:47:19;93993.28;;;21.94;57.75
33151;BME280;19508;42.578;23.416;2023-09-19T07:49:48;93993.47;;;22.06;58.04
33151;BME280;19508;42.578;23.416;2023-09-19T07:52:14;93997.78;;;21.90;56.07
33151;BME280;19508;42.578;23.416;2023-09-19T07:54:40;93993.91;;;21.91;56.93
33151;BME280;19508;42.578;23.416;2023-09-19T07:57:06;93996.31;;;21.84;56.42
33151;BME280;19508;42.578;23.416;2023-09-19T07:59:32;93990.13;;;21.61;57.83
33151;BME280;19508;42.578;23.416;2023-09-19T08:01:57;94001.66;;;21.89;58.36
33151;BME280;19508;42.578;23.416;2023-09-19T08:04:23;93995.69;;;21.30;59.68
33151;BME280;19508;42.578;23.416;2023-09-19T08:06:50;93989.63;;;21.50;58.44
33151;BME280;19508;42.578;23.416;2023-09-19T08:09:17;93996.03;;;21.37;58.45
33151;BME280;19508;42.578;23.416;2023-09-19T08:11:46;93997.41;;;21.65;58.64
33151;BME280;19508;42.578;23.416;2023-09-19T08:14:12;93990.03;;;21.92;58.81
33151;BME280;19508;42.578;23.416;2023-09-19T08:16:39;93999.47;;;22.26;57.54
33151;BME280;19508;42.578;23.416;2023-09-19T08:19:04;93994.63;;;22.48;56.49
33151;BME280;19508;42.578;23.416;2023-09-19T08:21:30;93992.69;;;22.49;57.29
33151;BME280;19508;42.578;23.416;2023-09-19T08:23:57;93984.75;;;22.82;56.58
33151;BME280;19508;42.578;23.416;2023-09-19T08:26:23;93983.66;;;22.40;57.01
33151;BME280;19508;42.578;23.416;2023-09-19T08:28:49;93979.47;;;22.34;57.24
33151;BME280;19508;42.578;23.416;2023-09-19T08:31:16;93975.56;;;22.52;57.19
33151;BME280;19508;42.578;23.416;2023-09-19T08:33:42;93973.50;;;22.14;56.65
33151;BME280;19508;42.578;23.416;2023-09-19T08:36:10;93971.34;;;21.94;56.55
33151;BME280;19508;42.578;23.416;2023-09-19T08:38:39;93971.38;;;22.29;56.76
33151;BME280;19508;42.578;23.416;2023-09-19T08:41:08;93966.19;;;22.70;55.36
33151;BME280;19508;42.578;23.416;2023-09-19T08:43:34;93964.72;;;22.99;55.46
33151;BME280;19508;42.578;23.416;2023-09-19T08:46:20;93957.59;;;23.45;54.90
33151;BME280;19508;42.578;23.416;2023-09-19T08:48:54;93960.41;;;23.66;53.29
33151;BME280;19508;42.578;23.416;2023-09-19T08:51:46;93963.84;;;23.83;52.00
33151;BME280;19508;42.578;23.416;2023-09-19T08:54:21;93968.63;;;24.45;50.92
33151;BME280;19508;42.578;23.416;2023-09-19T08:56:48;93966.00;;;24.49;50.28
33151;BME280;19508;42.578;23.416;2023-09-19T08:59:15;93959.00;;;24.85;50.00
33151;BME280;19508;42.578;23.416;2023-09-19T09:01:42;93955.81;;;25.28;49.10
33151;BME280;19508;42.578;23.416;2023-09-19T09:04:09;93950.00;;;24.96;49.60
33151;BME280;19508;42.578;23.416;2023-09-19T09:06:41;93949.41;;;25.48;47.77
33151;BME280;19508;42.578;23.416;2023-09-19T09:09:08;93943.00;;;25.81;50.62
33151;BME280;19508;42.578;23.416;2023-09-19T09:11:34;93949.88;;;25.87;46.78
33151;BME280;19508;42.578;23.416;2023-09-19T09:14:02;93947.13;;;25.75;46.58
33151;BME280;19508;42.578;23.416;2023-09-19T09:16:29;93937.19;;;26.10;45.11
33151;BME280;19508;42.578;23.416;2023-09-19T09:18:55;93937.94;;;25.83;45.90
33151;BME280;19508;42.578;23.416;2023-09-19T09:21:29;93935.41;;;25.78;45.46
33151;BME280;19508;42.578;23.416;2023-09-19T09:23:55;93924.38;;;25.90;45.07
33151;BME280;19508;42.578;23.416;2023-09-19T09:29:05;93933.59;;;26.22;45.53
33151;BME280;19508;42.578;23.416;2023-09-19T09:31:30;93926.44;;;26.46;43.50
33151;BME280;19508;42.578;23.416;2023-09-19T09:33:57;93930.44;;;25.96;43.87
33151;BME280;19508;42.578;23.416;2023-09-19T09:36:36;93927.34;;;25.48;46.45
33151;BME280;19508;42.578;23.416;2023-09-19T09:39:02;93921.63;;;25.66;47.51
33151;BME280;19508;42.578;23.416;2023-09-19T09:41:42;93914.59;;;25.68;49.38
33151;BME280;19508;42.578;23.416;2023-09-19T09:44:16;93912.19;;;25.79;47.63
33151;BME280;19508;42.578;23.416;2023-09-19T09:46:47;93909.81;;;26.18;46.72
33151;BME280;19508;42.578;23.416;2023-09-19T09:49:25;93915.63;;;26.00;46.75
33151;BME280;19508;42.578;23.416;2023-09-19T09:52:04;93915.88;;;25.34;47.79
33151;BME280;19508;42.578;23.416;2023-09-19T09:54:34;93915.63;;;25.27;47.10
33151;BME280;19508;42.578;23.416;2023-09-19T09:57:09;93910.59;;;25.66;48.67
33151;BME280;19508;42.578;23.416;2023-09-19T09:59:53;93904.00;;;25.70;48.16
33151;BME280;19508;42.578;23.416;2023-09-19T10:02:29;93904.31;;;26.18;47.36
33151;BME280;19508;42.578;23.416;2023-09-19T10:04:59;93896.53;;;25.95;46.43
33151;BME280;19508;42.578;23.416;2023-09-19T10:07:35;93893.44;;;25.97;48.46
33151;BME280;19508;42.578;23.416;2023-09-19T10:10:04;93894.34;;;26.01;45.80
33151;BME280;19508;42.578;23.416;2023-09-19T10:12:43;93892.75;;;25.87;46.11
33151;BME280;19508;42.578;23.416;2023-09-19T10:15:11;93892.91;;;26.19;46.23
33151;BME280;19508;42.578;23.416;2023-09-19T10:17:44;93894.34;;;26.69;45.61
33151;BME280;19508;42.578;23.416;2023-09-19T10:20:17;93885.06;;;26.61;43.80
33151;BME280;19508;42.578;23.416;2023-09-19T10:23:07;93882.97;;;26.42;44.63
33151;BME280;19508;42.578;23.416;2023-09-19T10:25:44;93882.31;;;26.21;45.35
33151;BME280;19508;42.578;23.416;2023-09-19T10:28:13;93877.81;;;26.29;44.22
33151;BME280;19508;42.578;23.416;2023-09-19T10:30:50;93890.72;;;25.84;45.17
33151;BME280;19508;42.578;23.416;2023-09-19T10:33:17;93885.81;;;26.06;45.44
33151;BME280;19508;42.578;23.416;2023-09-19T10:35:45;93886.22;;;25.92;47.52
33151;BME280;19508;42.578;23.416;2023-09-19T10:38:15;93889.19;;;25.63;47.06
33151;BME280;19508;42.578;23.416;2023-09-19T10:40:44;93880.25;;;25.66;47.29
33151;BME280;19508;42.578;23.416;2023-09-19T10:43:15;93883.00;;;25.66;46.76
33151;BME280;19508;42.578;23.416;2023-09-19T10:45:45;93877.41;;;25.50;47.31
33151;BME280;19508;42.578;23.416;2023-09-19T10:48:20;93876.00;;;25.44;46.74
33151;BME280;19508;42.578;23.416;2023-09-19T10:51:10;93873.81;;;25.62;46.14
33151;BME280;19508;42.578;23.416;2023-09-19T10:53:47;93873.72;;;25.58;46.68
33151;BME280;19508;42.578;23.416;2023-09-19T10:56:21;93876.13;;;25.84;46.59
33151;BME280;19508;42.578;23.416;2023-09-19T10:58:48;93868.28;;;25.98;47.35
33151;BME280;19508;42.578;23.416;2023-09-19T11:01:14;93867.53;;;25.73;46.47
33151;BME280;19508;42.578;23.416;2023-09-19T11:03:41;93868.16;;;25.95;45.96
33151;BME280;19508;42.578;23.416;2023-09-19T11:06:15;93864.19;;;25.43;46.26
33151;BME280;19508;42.578;23.416;2023-09-19T11:09:02;93863.69;;;25.90;48.59
33151;BME280;19508;42.578;23.416;2023-09-19T11:11:43;93863.16;;;26.12;47.19
33151;BME280;19508;42.578;23.416;2023-09-19T11:30:51;93842.97;;;26.96;45.30
33151;BME280;19508;42.578;23.416;2023-09-19T11:33:27;93834.66;;;26.64;45.21
33151;BME280;19508;42.578;23.416;2023-09-19T11:43:54;93821.81;;;28.21;41.44
33151;BME280;19508;42.578;23.416;2023-09-19T11:46:51;93817.50;;;28.04;41.89
33151;BME280;19508;42.578;23.416;2023-09-19T11:49:18;93811.09;;;27.65;42.76
33151;BME280;19508;42.578;23.416;2023-09-19T11:51:50;93807.19;;;27.86;42.48
33151;BME280;19508;42.578;23.416;2023-09-19T11:54:19;93796.88;;;28.02;42.12
33151;BME280;19508;42.578;23.416;2023-09-19T11:56:51;93800.97;;;28.47;41.13
33151;BME280;19508;42.578;23.416;2023-09-19T11:59:25;93788.13;;;28.19;41.06
33151;BME280;19508;42.578;23.416;2023-09-19T12:01:54;93787.72;;;27.78;42.41
33151;BME280;19508;42.578;23.416;2023-09-19T12:04:41;93786.38;;;27.72;41.47
33151;BME280;19508;42.578;23.416;2023-09-19T12:09:50;93788.00;;;27.22;43.73
33151;BME280;19508;42.578;23.416;2023-09-19T12:12:20;93794.22;;;26.88;43.92
33151;BME280;19508;42.578;23.416;2023-09-19T12:14:50;93787.34;;;26.82;44.50
33151;BME280;19508;42.578;23.416;2023-09-19T12:17:21;93784.41;;;26.75;44.32
33151;BME280;19508;42.578;23.416;2023-09-19T12:19:55;93783.00;;;26.81;44.17
33151;BME280;19508;42.578;23.416;2023-09-19T12:22:21;93781.97;;;27.52;42.67
33151;BME280;19508;42.578;23.416;2023-09-19T12:24:47;93784.00;;;27.55;43.36
33151;BME280;19508;42.578;23.416;2023-09-19T12:27:13;93784.41;;;27.38;42.09
33151;BME280;19508;42.578;23.416;2023-09-19T12:29:46;93774.44;;;27.17;42.56
33151;BME280;19508;42.578;23.416;2023-09-19T12:32:14;93777.72;;;27.23;42.73
33151;BME280;19508;42.578;23.416;2023-09-19T12:34:42;93771.94;;;28.60;40.98
33151;BME280;19508;42.578;23.416;2023-09-19T12:37:11;93767.44;;;29.20;39.78
33151;BME280;19508;42.578;23.416;2023-09-19T12:39:45;93767.94;;;29.26;38.33
33151;BME280;19508;42.578;23.416;2023-09-19T12:42:23;93758.31;;;31.14;38.32
33151;BME280;19508;42.578;23.416;2023-09-19T12:44:50;93750.75;;;32.46;33.24
33151;BME280;19508;42.578;23.416;2023-09-19T12:47:23;93744.47;;;34.76;31.78
33151;BME280;19508;42.578;23.416;2023-09-19T12:50:05;93738.94;;;36.10;28.17
33151;BME280;19508;42.578;23.416;2023-09-19T12:52:54;93739.03;;;37.49;25.97
33151;BME280;19508;42.578;23.416;2023-09-19T12:55:30;93733.91;;;36.93;26.04
33151;BME280;19508;42.578;23.416;2023-09-19T12:58:11;93722.59;;;35.19;29.09
33151;BME280;19508;42.578;23.416;2023-09-19T13:00:46;93734.69;;;34.32;29.86
33151;BME280;19508;42.578;23.416;2023-09-19T13:03:28;93734.13;;;33.53;31.12
33151;BME280;19508;42.578;23.416;2023-09-19T13:05:59;93727.66;;;32.42;32.92
33151;BME280;19508;42.578;23.416;2023-09-19T13:08:37;93734.97;;;31.85;33.88
33151;BME280;19508;42.578;23.416;2023-09-19T13:11:15;93729.38;;;30.75;35.49
33151;BME280;19508;42.578;23.416;2023-09-19T13:16:30;93729.13;;;29.83;38.36
33151;BME280;19508;42.578;23.416;2023-09-19T13:18:56;93734.53;;;29.45;38.06
33151;BME280;19508;42.578;23.416;2023-09-19T13:21:31;93724.47;;;29.07;38.88
33151;BME280;19508;42.578;23.416;2023-09-19T13:24:24;93721.53;;;28.51;39.83
33151;BME280;19508;42.578;23.416;2023-09-19T13:26:55;93729.56;;;28.17;40.19
33151;BME280;19508;42.578;23.416;2023-09-19T13:29:21;93724.38;;;27.73;41.42
33151;BME280;19508;42.578;23.416;2023-09-19T13:31:51;93708.97;;;27.57;42.43
33151;BME280;19508;42.578;23.416;2023-09-19T13:34:18;93713.25;;;27.35;42.03
33151;BME280;19508;42.578;23.416;2023-09-19T13:36:44;93719.44;;;27.28;44.21
33151;BME280;19508;42.578;23.416;2023-09-19T13:39:10;93708.13;;;27.17;42.48
33151;BME280;19508;42.578;23.416;2023-09-19T13:41:38;93715.47;;;26.94;43.00
33151;BME280;19508;42.578;23.416;2023-09-19T13:44:04;93708.59;;;26.88;43.50
33151;BME280;19508;42.578;23.416;2023-09-19T13:46:30;93708.72;;;26.76;44.37